WetterOnline ( https://www.wetteronline.de )

Wetter aktuell Lichtenfels

Aktuelles Wetter: Coburg (323m)

6-stündlich | Neueste Meldungen
Ortszeit Temperatur Wetter
Do, 18.07. 8:00 15.5° C fast wolkenlos
Do, 18.07. 2:00 13.8° C leicht bewölkt
Mi, 17.07. 20:00 21.4° C bewölkt
Mi, 17.07. 14:00 21.5° C wolkig
Mi, 17.07. 8:00 15.9° C bedeckt
Mi, 17.07. 2:00 13.1° C wolkig
Di, 16.07. 20:00 22.0° C wolkig
Di, 16.07. 14:00 22.5° C bewölkt
Ortszeit Temperatur Wetter
Do, 18.07. 13:00 25.4° C leicht bewölkt
Do, 18.07. 12:50 25.4° C wolkig
Do, 18.07. 12:40 24.8° C bedeckt
Do, 18.07. 12:30 24.4° C wolkig
Do, 18.07. 12:20 24.4° C wolkig
Do, 18.07. 12:10 23.9° C bedeckt
Do, 18.07. 12:00 24.1° C leicht bewölkt
Do, 18.07. 11:30 22.9° C wolkig
Do, 18.07. 11:00 22.5° C leicht bewölkt
Do, 18.07. 10:30 22.5° C wolkig
Do, 18.07. 10:00 21.7° C leicht bewölkt
Ortszeit Relative Feuchte Sichtweite
Do, 18.07. 8:00 83% 35 km
Do, 18.07. 2:00 88% 60 km
Mi, 17.07. 20:00 55% >70 km
Mi, 17.07. 14:00 54% >70 km
Mi, 17.07. 8:00 81% 50 km
Mi, 17.07. 2:00 93% 45 km
Di, 16.07. 20:00 49% 60 km
Di, 16.07. 14:00 59% >70 km
Ortszeit Relative Feuchte Sichtweite
Do, 18.07. 13:00 41% 60 km
Do, 18.07. 12:50 41% -
Do, 18.07. 12:40 46% -
Do, 18.07. 12:30 47% 45 km
Do, 18.07. 12:20 47% -
Do, 18.07. 12:10 46% -
Do, 18.07. 12:00 53% 45 km
Do, 18.07. 11:30 55% 60 km
Do, 18.07. 11:00 55% >70 km
Do, 18.07. 10:30 55% >70 km
Do, 18.07. 10:00 60% 55 km
Ortszeit Niederschlagsmenge Niederschlagsart
Do, 18.07. 8:00 0.0 l/m2 in 12 Std. -
Do, 18.07. 2:00 0.0 l/m2 in 6 Std. -
Mi, 17.07. 20:00 0.0 l/m2 in 12 Std. -
Mi, 17.07. 14:00 0.0 l/m2 in 6 Std. -
Mi, 17.07. 8:00 0.1 l/m2 in 12 Std. -
Mi, 17.07. 2:00 0.1 l/m2 in 6 Std. Regen
Di, 16.07. 20:00 0.1 l/m2 in 12 Std. -
Di, 16.07. 14:00 0.1 l/m2 in 6 Std. Sprühregen
Ortszeit Niederschlagsmenge Niederschlagsart
Do, 18.07. 13:00 0.0 l/m2 in 1 Std. -
Do, 18.07. 12:50 keine Meldung -
Do, 18.07. 12:40 keine Meldung -
Do, 18.07. 12:30 0.0 l/m2 in 30 Min -
Do, 18.07. 12:20 keine Meldung -
Do, 18.07. 12:10 keine Meldung -
Do, 18.07. 12:00 0.0 l/m2 in 1 Std. -
Do, 18.07. 11:30 0.0 l/m2 in 30 Min -
Do, 18.07. 11:00 0.0 l/m2 in 1 Std. -
Do, 18.07. 10:30 0.0 l/m2 in 30 Min -
Do, 18.07. 10:00 0.0 l/m2 in 1 Std. -
Ortszeit Stärke Spitze Richtung
km/h Bft. km/h Grad Sektor
Do, 18.07. 8:00 4 1 14 210° SW
Do, 18.07. 2:00 6 1 17 20° N
Mi, 17.07. 20:00 13 3 35 300° NW
Mi, 17.07. 14:00 19 3 33 280° W
Mi, 17.07. 8:00 6 1 13 100° O
Mi, 17.07. 2:00 7 2 50 90° O
Di, 16.07. 20:00 19 3 46 250° W
Di, 16.07. 14:00 29 5 50 230° SW
Ortszeit Stärke Spitze Richtung
km/h Bft. km/h Grad Sektor
Do, 18.07. 13:00 9 2 19 100° O
Do, 18.07. 12:50 9 2 - 100° O
Do, 18.07. 12:40 7 2 - 120° SO
Do, 18.07. 12:30 6 1 19 160° S
Do, 18.07. 12:20 6 1 - 160° S
Do, 18.07. 12:10 9 2 - 130° SO
Do, 18.07. 12:00 7 2 22 110° O
Do, 18.07. 11:30 7 2 14 160° S
Do, 18.07. 11:00 7 2 18 140° SO
Do, 18.07. 10:30 9 2 17 120° SO
Do, 18.07. 10:00 7 2 14 110° O
Ortszeit Untergrenze Bedeckung Gattung
total tief tief mittel hoch
Do, 18.07. 8:00 10500 m 1/8 0/8 - - -
Do, 18.07. 2:00 10500 m 5/8 0/8 - - -
Mi, 17.07. 20:00 2700 m 7/8 7/8 - - -
Mi, 17.07. 14:00 1410 m 5/8 5/8 - - -
Mi, 17.07. 8:00 5400 m 8/8 8/8 - - -
Mi, 17.07. 2:00 1230 m 5/8 5/8 - - -
Di, 16.07. 20:00 2400 m 6/8 5/8 - - -
Di, 16.07. 14:00 1470 m 7/8 7/8 - - -
Ortszeit Bedeckungsgrad in Achtel und Wolkenuntergrenze
Do, 18.07. 13:00 8(8100m)
Do, 18.07. 12:50 8(8100m)
Do, 18.07. 12:40 8
Do, 18.07. 12:30 8(8100m) 8(9000m)
Do, 18.07. 12:20 8(8100m) 8(9000m)
Do, 18.07. 12:10 8
Do, 18.07. 12:00 8(8400m) 8(9000m) 8(10500m)
Do, 18.07. 11:30 8(8700m) 8(9000m)
Do, 18.07. 11:00 7(8400m) 8(9000m) 8(10500m)
Do, 18.07. 10:30 3(8700m) 7(9000m) 8(10500m)
Do, 18.07. 10:00 3(8700m) 6(9000m) 7(10500m)
Ortszeit Luftdruck NN (hPa) Tendenz (hPa in 3 Std.)
Do, 18.07. 8:00 1024 + 0,4
Do, 18.07. 2:00 1024 + 0,4
Mi, 17.07. 20:00 1021 + 0,6
Mi, 17.07. 14:00 1020 + 0,4
Mi, 17.07. 8:00 1020 + 1,4
Mi, 17.07. 2:00 1019 + 0,5
Di, 16.07. 20:00 1014 + 1,0
Di, 16.07. 14:00 1014 + 0,4
Ortszeit Luftdruck NN (hPa) Tendenz (hPa in 3 Std.)
Do, 18.07. 13:00 1022 - 0,8
Do, 18.07. 12:50 1022 keine Meldung
Do, 18.07. 12:40 1022 keine Meldung
Do, 18.07. 12:30 1022 - 0,6
Do, 18.07. 12:20 1022 keine Meldung
Do, 18.07. 12:10 1022 keine Meldung
Do, 18.07. 12:00 1022 - 0,4
Do, 18.07. 11:30 1023 - 0,1
Do, 18.07. 11:00 1023 + 0,1
Do, 18.07. 10:30 1023 + 0,3
Do, 18.07. 10:00 1023 + 0,4
Ortszeit Schneehöhe (cm)
Do, 18.07. 8:00 0
Do, 18.07. 2:00 0
Mi, 17.07. 20:00 0
Mi, 17.07. 14:00 0
Mi, 17.07. 8:00 0
Mi, 17.07. 2:00 0
Di, 16.07. 20:00 0
Di, 16.07. 14:00 0
Ortszeit Schneehöhe (cm)
Do, 18.07. 13:00 0
Do, 18.07. 12:50 0
Do, 18.07. 12:40 -
Do, 18.07. 12:30 0
Do, 18.07. 12:20 0
Do, 18.07. 12:10 -
Do, 18.07. 12:00 0
Do, 18.07. 11:30 0
Do, 18.07. 11:00 0
Do, 18.07. 10:30 0
Do, 18.07. 10:00 0
Link zu dieser Seite / Seite empfehlen

Das Wetter in ...